createdAt,value
2019-03-22T00:00:57.187Z,30.70
2019-03-22T00:01:57.147Z,32.00
2019-03-22T00:02:57.111Z,28.80
2019-03-22T00:03:57.073Z,30.70
2019-03-22T00:04:57.028Z,31.00
2019-03-22T00:05:56.991Z,31.40
2019-03-22T00:06:56.960Z,30.50
2019-03-22T00:07:56.905Z,32.60
2019-03-22T00:08:56.868Z,32.90
2019-03-22T00:09:56.828Z,33.00
2019-03-22T00:10:56.789Z,37.20
2019-03-22T00:11:56.745Z,37.70
2019-03-22T00:12:56.704Z,36.70
2019-03-22T00:13:56.665Z,40.80
2019-03-22T00:14:56.624Z,37.70
2019-03-22T00:15:56.589Z,36.00
2019-03-22T00:16:56.545Z,34.80
2019-03-22T00:17:56.510Z,34.30
2019-03-22T00:18:56.474Z,34.70
2019-03-22T00:19:56.422Z,36.40
2019-03-22T00:20:56.382Z,33.60
2019-03-22T00:21:56.342Z,34.40
2019-03-22T00:22:56.305Z,39.90
2019-03-22T00:23:56.265Z,39.00
2019-03-22T00:24:56.222Z,41.70
2019-03-22T00:25:56.180Z,39.60
2019-03-22T00:26:56.138Z,37.50
2019-03-22T00:27:56.105Z,41.40
2019-03-22T00:28:56.062Z,38.80
2019-03-22T00:29:56.021Z,44.30
2019-03-22T00:31:04.638Z,45.30
2019-03-22T00:33:00.380Z,42.00
2019-03-22T00:34:00.314Z,42.80
2019-03-22T00:35:00.420Z,42.40
2019-03-22T00:36:00.238Z,43.30
2019-03-22T00:37:00.200Z,43.10
2019-03-22T00:38:00.219Z,44.10
2019-03-22T00:39:00.117Z,42.10
2019-03-22T00:40:00.073Z,41.60
2019-03-22T00:41:00.032Z,42.60
2019-03-22T00:42:00.006Z,39.50
2019-03-22T00:42:59.953Z,39.40
2019-03-22T00:43:59.911Z,42.90
2019-03-22T00:44:59.871Z,41.90
2019-03-22T00:45:59.831Z,37.00
2019-03-22T00:46:59.793Z,39.90
2019-03-22T00:47:59.752Z,40.20
2019-03-22T00:48:59.719Z,42.50
2019-03-22T00:49:59.673Z,38.80
2019-03-22T00:50:59.630Z,38.80
2019-03-22T00:51:59.589Z,42.10
2019-03-22T00:52:59.548Z,41.30
2019-03-22T00:53:59.506Z,39.50
2019-03-22T00:54:59.469Z,38.10
2019-03-22T00:55:59.428Z,40.80
2019-03-22T00:56:59.391Z,39.80
2019-03-22T00:57:59.345Z,38.10
2019-03-22T00:58:59.304Z,39.90
2019-03-22T00:59:59.267Z,36.50
2019-03-22T01:00:59.227Z,39.10
2019-03-22T01:01:59.191Z,38.50
2019-03-22T01:02:59.144Z,40.20
2019-03-22T01:03:59.103Z,37.40
2019-03-22T01:04:59.060Z,40.80
2019-03-22T01:05:59.019Z,39.40
2019-03-22T01:06:58.981Z,38.50
2019-03-22T01:07:58.942Z,34.60
2019-03-22T01:08:58.905Z,37.00
2019-03-22T01:09:58.865Z,35.50
2019-03-22T01:10:58.821Z,34.70
2019-03-22T01:11:58.778Z,35.70
2019-03-22T01:12:58.739Z,35.80
2019-03-22T01:13:58.703Z,36.70
2019-03-22T01:14:58.659Z,34.10
2019-03-22T01:15:58.618Z,38.40
2019-03-22T01:16:58.574Z,39.50
2019-03-22T01:17:58.534Z,36.10
2019-03-22T01:18:58.497Z,32.00
2019-03-22T01:19:58.456Z,33.90
2019-03-22T01:20:58.419Z,34.90
2019-03-22T01:21:58.378Z,34.00
2019-03-22T01:22:58.337Z,37.80
2019-03-22T01:23:59.982Z,33.00
2019-03-22T01:24:58.251Z,35.40
2019-03-22T01:25:58.213Z,32.10
2019-03-22T01:26:58.170Z,32.40
2019-03-22T01:27:58.132Z,31.20
2019-03-22T01:28:58.096Z,34.60
2019-03-22T01:29:58.048Z,34.30
2019-03-22T01:30:58.008Z,34.60
2019-03-22T01:31:57.970Z,30.20
2019-03-22T01:32:57.932Z,32.50
2019-03-22T01:33:57.891Z,32.50
2019-03-22T01:34:57.850Z,30.90
2019-03-22T01:35:57.805Z,30.70
2019-03-22T01:36:57.764Z,33.30
2019-03-22T01:37:57.723Z,31.70
2019-03-22T01:38:57.684Z,33.70
2019-03-22T01:39:57.645Z,30.50
2019-03-22T01:40:57.606Z,30.40
2019-03-22T01:41:57.564Z,30.00
2019-03-22T01:42:57.528Z,33.90
2019-03-22T01:43:57.482Z,34.70
2019-03-22T01:44:57.438Z,37.90
2019-03-22T01:45:57.405Z,32.20
2019-03-22T01:46:57.360Z,32.90
2019-03-22T01:47:57.324Z,32.70
2019-03-22T01:48:57.276Z,30.10
2019-03-22T01:49:57.235Z,31.20
2019-03-22T01:50:57.195Z,28.60
2019-03-22T01:51:57.157Z,27.90
2019-03-22T01:52:57.118Z,29.00
2019-03-22T01:53:57.084Z,28.30
2019-03-22T01:54:57.035Z,30.20
2019-03-22T01:55:56.992Z,29.10
2019-03-22T01:56:56.951Z,28.70
2019-03-22T01:57:56.910Z,25.60
2019-03-22T01:58:56.927Z,28.90
2019-03-22T01:59:56.834Z,26.50
2019-03-22T02:00:56.793Z,25.90
2019-03-22T02:01:56.748Z,25.50
2019-03-22T02:02:56.730Z,26.40
2019-03-22T02:03:56.670Z,28.20
2019-03-22T02:04:56.631Z,28.60
2019-03-22T02:05:56.592Z,27.40
2019-03-22T02:06:56.546Z,24.40
2019-03-22T02:07:56.506Z,27.40
2019-03-22T02:08:56.463Z,26.60
2019-03-22T02:09:56.423Z,29.30
2019-03-22T02:10:56.381Z,28.00
2019-03-22T02:11:56.344Z,26.80
2019-03-22T02:12:56.305Z,25.80
2019-03-22T02:13:56.265Z,23.50
2019-03-22T02:14:56.221Z,24.10
2019-03-22T02:15:56.180Z,25.50
2019-03-22T02:16:56.138Z,26.70
2019-03-22T02:17:56.102Z,25.70
2019-03-22T02:18:56.061Z,28.40
2019-03-22T02:19:56.016Z,26.80
2019-03-22T02:20:55.974Z,26.60
2019-03-22T02:21:55.934Z,28.50
2019-03-22T02:22:55.894Z,29.70
2019-03-22T02:23:55.858Z,29.20
2019-03-22T02:24:55.817Z,30.60
2019-03-22T02:25:55.777Z,26.00
2019-03-22T02:26:55.735Z,25.40
2019-03-22T02:28:03.815Z,26.90
2019-03-22T02:28:55.649Z,26.40
2019-03-22T02:29:55.610Z,25.10
2019-03-22T02:30:55.568Z,24.90
2019-03-22T02:31:55.535Z,24.50
2019-03-22T02:32:55.490Z,24.80
2019-03-22T02:33:55.568Z,27.70
2019-03-22T02:34:55.412Z,25.00
2019-03-22T02:35:55.371Z,26.10
2019-03-22T02:36:55.329Z,26.00
2019-03-22T02:37:55.287Z,24.30
2019-03-22T02:38:55.254Z,24.70
2019-03-22T02:39:55.203Z,22.70
2019-03-22T02:40:55.166Z,23.20
2019-03-22T02:41:55.125Z,24.10
2019-03-22T02:42:55.082Z,21.70
2019-03-22T02:43:55.058Z,24.20
2019-03-22T02:44:55.003Z,25.50
2019-03-22T02:45:54.964Z,25.20
2019-03-22T02:46:54.922Z,24.00
2019-03-22T02:47:54.882Z,25.20
2019-03-22T02:48:54.838Z,27.30
2019-03-22T02:49:54.800Z,24.00
2019-03-22T02:50:56.282Z,21.90
2019-03-22T02:51:54.715Z,25.90
2019-03-22T02:52:54.677Z,22.10
2019-03-22T02:53:54.634Z,25.00
2019-03-22T02:54:54.595Z,22.60
2019-03-22T02:55:54.724Z,24.80
2019-03-22T02:56:54.515Z,21.50
2019-03-22T02:57:54.477Z,21.90
2019-03-22T02:58:54.483Z,21.40
2019-03-22T02:59:54.390Z,24.50
2019-03-22T03:00:54.366Z,21.70
2019-03-22T03:01:54.313Z,24.20
2019-03-22T03:02:54.265Z,20.80
2019-03-22T03:03:54.233Z,23.10
2019-03-22T03:04:54.195Z,24.00
2019-03-22T03:05:54.146Z,24.60
2019-03-22T03:06:54.101Z,24.30
2019-03-22T03:07:54.066Z,23.70
2019-03-22T03:08:54.029Z,21.50
2019-03-22T03:09:53.983Z,19.80
2019-03-22T03:10:53.942Z,20.80
2019-03-22T03:11:53.898Z,20.70
2019-03-22T03:12:53.861Z,24.30
2019-03-22T03:13:53.822Z,21.70
2019-03-22T03:14:53.778Z,22.80
2019-03-22T03:15:53.750Z,21.30
2019-03-22T03:16:53.698Z,23.20
2019-03-22T03:17:53.659Z,20.70
2019-03-22T03:18:53.625Z,21.00
2019-03-22T03:19:53.573Z,19.00
2019-03-22T03:20:53.549Z,19.70
2019-03-22T03:21:53.495Z,21.00
2019-03-22T03:22:53.455Z,22.20
2019-03-22T03:23:53.407Z,19.20
2019-03-22T03:24:53.368Z,17.90
2019-03-22T03:25:53.331Z,19.70
2019-03-22T03:26:53.283Z,20.10
2019-03-22T03:27:53.249Z,16.40
2019-03-22T03:28:53.207Z,17.10
2019-03-22T03:29:53.177Z,16.50
2019-03-22T03:43:52.227Z,21.10
2019-03-22T03:44:52.152Z,17.50
2019-03-22T03:45:52.099Z,16.10
2019-03-22T03:46:52.057Z,15.30
2019-03-22T03:47:52.016Z,13.90
2019-03-22T03:48:51.972Z,16.10
2019-03-22T03:49:51.923Z,14.10
2019-03-22T03:50:51.881Z,15.80
2019-03-22T03:51:51.839Z,16.70
2019-03-22T03:52:51.794Z,16.10
2019-03-22T03:53:51.756Z,16.40
2019-03-22T03:54:51.713Z,13.70
2019-03-22T03:55:51.679Z,14.90
2019-03-22T03:56:51.625Z,14.10
2019-03-22T03:57:51.590Z,15.70
2019-03-22T03:58:52.896Z,15.90
2019-03-22T03:59:51.503Z,16.20
2019-03-22T04:00:51.463Z,15.90
2019-03-22T04:01:51.421Z,15.20
2019-03-22T04:02:51.377Z,16.70
2019-03-22T04:03:51.336Z,16.70
2019-03-22T04:04:51.311Z,16.20
2019-03-22T04:05:51.250Z,16.30
2019-03-22T04:06:51.209Z,15.40
2019-03-22T04:07:51.168Z,15.60
2019-03-22T04:08:51.125Z,16.00
2019-03-22T04:09:51.089Z,16.30
2019-03-22T04:10:51.045Z,19.10
2019-03-22T04:11:51.008Z,15.20
2019-03-22T04:12:50.968Z,16.60
2019-03-22T04:13:50.919Z,12.90
2019-03-22T04:14:50.878Z,14.70
2019-03-22T04:15:50.835Z,17.40
2019-03-22T04:16:50.794Z,15.80
2019-03-22T04:17:50.757Z,14.60
2019-03-22T04:18:50.715Z,17.60
2019-03-22T04:19:50.671Z,14.50
2019-03-22T04:20:50.631Z,18.10
2019-03-22T04:21:50.639Z,15.20
2019-03-22T04:22:50.554Z,15.30
2019-03-22T04:23:50.508Z,13.50
2019-03-22T04:24:50.472Z,14.50
2019-03-22T04:25:50.484Z,16.10
2019-03-22T04:26:50.383Z,12.80
2019-03-22T04:27:50.338Z,15.20
2019-03-22T04:28:50.300Z,11.40
2019-03-22T04:29:50.261Z,13.10
2019-03-22T04:30:50.258Z,13.90
2019-03-22T04:31:50.178Z,14.70
2019-03-22T04:32:50.152Z,14.20
2019-03-22T04:33:50.091Z,15.80
2019-03-22T04:34:50.052Z,14.10
2019-03-22T04:35:50.013Z,13.20
2019-03-22T04:36:49.972Z,14.60
2019-03-22T04:37:49.926Z,15.60
2019-03-22T04:38:49.885Z,13.60
2019-03-22T04:39:49.843Z,13.50
2019-03-22T04:40:49.803Z,12.30
2019-03-22T04:41:49.768Z,14.10
2019-03-22T04:42:49.722Z,13.70
2019-03-22T04:43:49.681Z,14.10
2019-03-22T04:44:49.641Z,15.00
2019-03-22T04:45:49.596Z,14.10
2019-03-22T04:46:49.557Z,11.90
2019-03-22T04:47:49.513Z,14.70
2019-03-22T04:48:49.471Z,15.90
2019-03-22T04:49:49.435Z,13.40
2019-03-22T04:50:49.395Z,11.90
2019-03-22T04:51:49.349Z,14.00
2019-03-22T04:52:49.305Z,12.90
2019-03-22T04:53:49.271Z,13.00
2019-03-22T04:54:49.228Z,16.90
2019-03-22T04:55:49.188Z,13.50
2019-03-22T04:56:49.146Z,12.00
2019-03-22T04:57:49.101Z,11.20
2019-03-22T04:58:49.061Z,12.50
2019-03-22T04:59:49.022Z,12.20
2019-03-22T05:00:48.976Z,12.30
2019-03-22T05:01:48.940Z,12.60
2019-03-22T05:02:48.956Z,9.90
2019-03-22T05:03:48.855Z,11.20
2019-03-22T05:04:48.817Z,12.40
2019-03-22T05:05:48.770Z,12.00
2019-03-22T05:06:48.731Z,14.00
2019-03-22T05:07:48.692Z,13.40
2019-03-22T05:08:48.651Z,14.10
2019-03-22T05:09:48.608Z,12.70
2019-03-22T05:10:48.567Z,12.80
2019-03-22T05:11:48.524Z,11.70
2019-03-22T05:12:48.481Z,12.40
2019-03-22T05:13:48.448Z,10.30
2019-03-22T05:14:48.402Z,13.00
2019-03-22T05:15:48.362Z,13.60
2019-03-22T05:16:48.320Z,10.50
2019-03-22T05:17:48.275Z,10.90
2019-03-22T05:18:48.237Z,14.30
2019-03-22T05:19:48.193Z,10.60
2019-03-22T05:20:48.150Z,10.80
2019-03-22T05:21:48.115Z,10.90
2019-03-22T05:22:48.072Z,10.50
2019-03-22T05:23:48.028Z,9.90
2019-03-22T05:24:47.986Z,10.40
2019-03-22T05:25:47.950Z,10.60
2019-03-22T05:26:47.907Z,9.40
2019-03-22T05:27:47.865Z,11.00
2019-03-22T05:28:47.827Z,10.30
2019-03-22T05:29:47.780Z,10.70
2019-03-22T05:30:47.740Z,11.60
2019-03-22T05:31:47.701Z,11.40
2019-03-22T05:32:47.655Z,10.10
2019-03-22T05:33:47.620Z,10.90
2019-03-22T05:34:47.578Z,11.60
2019-03-22T05:35:47.535Z,10.40
2019-03-22T05:36:47.496Z,11.00
2019-03-22T05:37:47.450Z,12.20
2019-03-22T05:38:47.412Z,11.40
2019-03-22T05:39:47.373Z,11.50
2019-03-22T05:40:47.330Z,12.40
2019-03-22T05:41:47.287Z,13.60
2019-03-22T05:42:47.244Z,14.00
2019-03-22T05:43:47.203Z,11.80
2019-03-22T05:44:47.161Z,13.60
2019-03-22T05:45:47.125Z,11.70
2019-03-22T05:46:48.921Z,12.40
2019-03-22T05:47:47.043Z,14.40
2019-03-22T05:48:47.014Z,11.80
2019-03-22T05:49:46.955Z,11.70
2019-03-22T05:50:46.967Z,12.50
2019-03-22T05:51:46.873Z,11.20
2019-03-22T05:52:46.829Z,13.00
2019-03-22T05:53:46.795Z,14.60
2019-03-22T05:54:46.751Z,13.10
2019-03-22T05:55:46.707Z,11.70
2019-03-22T05:56:46.666Z,12.00
2019-03-22T05:57:46.630Z,10.50
2019-03-22T05:58:46.588Z,12.40
2019-03-22T05:59:46.546Z,11.80
2019-03-22T06:00:46.505Z,13.80
2019-03-22T06:01:46.460Z,12.50
2019-03-22T06:02:46.420Z,11.10
2019-03-22T06:03:46.379Z,11.10
2019-03-22T06:04:46.334Z,11.30
2019-03-22T06:05:46.298Z,13.60
2019-03-22T06:06:46.260Z,11.60
2019-03-22T06:07:46.217Z,11.00
2019-03-22T06:08:46.172Z,10.90
2019-03-22T06:09:46.135Z,13.20
2019-03-22T06:10:46.088Z,12.20
2019-03-22T06:11:46.049Z,12.60
2019-03-22T06:12:46.011Z,11.20
2019-03-22T06:13:45.963Z,10.20
2019-03-22T06:14:45.924Z,12.80
2019-03-22T06:15:45.882Z,11.20
2019-03-22T06:16:45.838Z,10.90
2019-03-22T06:17:51.514Z,12.40
2019-03-22T06:18:45.762Z,9.40
2019-03-22T06:19:45.719Z,9.60
2019-03-22T06:20:45.681Z,11.40
2019-03-22T06:21:45.634Z,9.70
2019-03-22T06:22:45.596Z,12.10
2019-03-22T06:23:45.554Z,10.30
2019-03-22T06:24:45.511Z,11.30
2019-03-22T06:25:45.475Z,10.50
2019-03-22T06:26:45.436Z,10.60
2019-03-22T06:27:45.390Z,11.10
2019-03-22T06:28:45.347Z,10.50
2019-03-22T06:29:53.556Z,11.90
2019-03-22T06:30:47.816Z,11.50
2019-03-22T06:31:45.228Z,11.70
2019-03-22T06:32:45.190Z,11.40
2019-03-22T06:33:45.143Z,12.50
2019-03-22T06:34:45.104Z,9.40
2019-03-22T06:35:45.062Z,9.60
2019-03-22T06:36:45.021Z,13.10
2019-03-22T06:37:44.987Z,11.10
2019-03-22T06:38:44.943Z,12.20
2019-03-22T06:39:44.903Z,14.00
2019-03-22T06:40:44.865Z,11.20
2019-03-22T06:41:44.817Z,12.70
2019-03-22T06:42:44.778Z,9.70
2019-03-22T06:43:44.741Z,13.90
2019-03-22T06:44:44.700Z,12.40
2019-03-22T06:45:44.653Z,14.70
2019-03-22T06:46:44.616Z,10.30
2019-03-22T06:47:44.574Z,14.70
2019-03-22T06:48:44.532Z,11.10
2019-03-22T06:49:44.544Z,13.50
2019-03-22T06:50:44.456Z,13.90
2019-03-22T06:51:44.414Z,9.30
2019-03-22T06:52:44.387Z,13.70
2019-03-22T06:53:44.332Z,11.90
2019-03-22T06:54:44.291Z,12.40
2019-03-22T06:55:44.250Z,12.10
2019-03-22T06:56:44.209Z,13.40
2019-03-22T06:57:44.173Z,16.10
2019-03-22T06:58:44.132Z,13.20
2019-03-22T06:59:44.096Z,12.70
2019-03-22T07:00:44.046Z,16.70
2019-03-22T07:01:44.017Z,13.50
2019-03-22T07:02:43.971Z,16.10
2019-03-22T07:03:43.929Z,15.30
2019-03-22T07:04:43.891Z,12.60
2019-03-22T07:05:43.845Z,14.10
2019-03-22T07:06:43.807Z,14.80
2019-03-22T07:07:43.768Z,15.30
2019-03-22T07:08:43.725Z,11.90
2019-03-22T07:09:43.689Z,12.40
2019-03-22T07:10:43.647Z,13.40
2019-03-22T07:11:43.608Z,12.40
2019-03-22T07:12:43.568Z,15.40
2019-03-22T07:13:43.523Z,11.40
2019-03-22T07:14:43.485Z,13.10
2019-03-22T07:15:43.446Z,15.00
2019-03-22T07:16:43.408Z,12.50
2019-03-22T07:17:43.363Z,12.40
2019-03-22T07:18:43.325Z,13.30
2019-03-22T07:19:43.287Z,11.80
2019-03-22T07:20:43.247Z,12.70
2019-03-22T07:21:43.208Z,14.90
2019-03-22T07:22:43.166Z,17.40
2019-03-22T07:23:43.127Z,15.60
2019-03-22T07:24:43.087Z,13.40
2019-03-22T07:25:43.043Z,11.90
2019-03-22T07:26:43.012Z,11.30
2019-03-22T07:27:42.964Z,16.20
2019-03-22T07:28:42.925Z,15.20
2019-03-22T07:29:42.889Z,15.60
2019-03-22T07:30:42.849Z,16.80
2019-03-22T07:31:42.804Z,12.80
2019-03-22T07:32:42.763Z,12.10
2019-03-22T07:33:42.729Z,13.90
2019-03-22T07:34:42.687Z,15.40
2019-03-22T07:35:42.648Z,15.50
2019-03-22T07:36:42.612Z,13.60
2019-03-22T07:37:42.566Z,12.20
2019-03-22T07:38:42.527Z,16.10
2019-03-22T07:39:42.487Z,13.10
2019-03-22T07:40:42.445Z,10.70
2019-03-22T07:41:42.411Z,11.00
2019-03-22T07:42:42.372Z,11.40
2019-03-22T07:43:42.330Z,12.30
2019-03-22T07:44:42.293Z,14.80
2019-03-22T07:45:42.248Z,11.90
2019-03-22T07:46:42.213Z,13.80
2019-03-22T07:47:42.172Z,10.10
2019-03-22T07:48:42.135Z,13.70
2019-03-22T07:49:42.090Z,12.10
2019-03-22T07:50:42.055Z,10.20
2019-03-22T07:51:42.013Z,10.30
2019-03-22T07:52:41.972Z,9.70
2019-03-22T07:53:41.939Z,10.70
2019-03-22T07:54:41.898Z,13.40
2019-03-22T07:55:41.862Z,9.90
2019-03-22T07:56:41.820Z,9.10
2019-03-22T07:57:41.776Z,11.90
2019-03-22T07:58:41.740Z,11.90
2019-03-22T07:59:41.700Z,11.30
2019-03-22T08:00:41.661Z,8.50
2019-03-22T08:01:41.625Z,10.20
2019-03-22T08:02:41.585Z,9.70
2019-03-22T08:03:41.547Z,10.20
2019-03-22T08:04:41.502Z,9.40
2019-03-22T08:05:50.870Z,10.80
2019-03-22T08:06:41.432Z,10.80
2019-03-22T08:07:41.390Z,9.30
2019-03-22T08:08:41.354Z,8.50
2019-03-22T08:09:41.368Z,8.60
2019-03-22T08:10:41.280Z,10.10
2019-03-22T08:11:41.244Z,10.70
2019-03-22T08:12:41.198Z,9.30
2019-03-22T08:13:41.158Z,7.80
2019-03-22T08:14:41.135Z,9.30
2019-03-22T08:15:41.093Z,9.50
2019-03-22T08:16:41.041Z,8.50
2019-03-22T08:17:41.002Z,11.70
2019-03-22T08:18:40.966Z,11.10
2019-03-22T08:19:40.927Z,12.90
2019-03-22T08:20:40.888Z,12.10
2019-03-22T08:21:40.848Z,13.60
2019-03-22T08:22:40.808Z,9.60
2019-03-22T08:23:40.768Z,14.40
2019-03-22T08:24:40.731Z,11.70
2019-03-22T08:25:43.295Z,10.90
2019-03-22T08:26:40.661Z,13.90
2019-03-22T08:27:40.631Z,9.80
2019-03-22T08:28:40.583Z,10.20
2019-03-22T08:29:40.540Z,9.60
2019-03-22T08:30:43.241Z,12.00
2019-03-22T08:31:40.500Z,10.80
2019-03-22T08:32:40.425Z,13.00
2019-03-22T08:33:40.389Z,12.40
2019-03-22T08:34:40.353Z,11.10
2019-03-22T08:35:40.323Z,10.00
2019-03-22T08:36:40.273Z,12.30
2019-03-22T08:37:51.781Z,9.40
2019-03-22T08:38:40.201Z,11.50
2019-03-22T08:39:40.167Z,9.50
2019-03-22T08:40:40.122Z,8.30
2019-03-22T08:41:40.119Z,10.70
2019-03-22T08:42:40.087Z,12.40
2019-03-22T08:43:40.007Z,9.50
2019-03-22T08:44:39.970Z,10.10
2019-03-22T08:45:39.940Z,8.80
2019-03-22T08:46:39.933Z,9.70
2019-03-22T08:47:39.861Z,9.20
2019-03-22T08:48:39.885Z,9.50
2019-03-22T08:49:39.972Z,9.10
2019-03-22T08:50:39.739Z,8.70
2019-03-22T08:51:39.736Z,9.20
2019-03-22T08:52:39.669Z,10.40
2019-03-22T08:53:39.628Z,7.80
2019-03-22T08:54:39.631Z,9.70
2019-03-22T08:55:39.554Z,9.50
2019-03-22T08:56:39.522Z,9.60
2019-03-22T08:57:39.487Z,10.80
2019-03-22T08:58:39.545Z,11.60
2019-03-22T08:59:39.424Z,10.30
2019-03-22T09:00:39.948Z,12.00
2019-03-22T09:01:39.330Z,9.30
2019-03-22T09:02:39.289Z,8.50
2019-03-22T09:03:39.266Z,8.30
2019-03-22T09:04:39.221Z,10.10
2019-03-22T09:05:39.179Z,11.10
2019-03-22T09:06:39.143Z,9.70
2019-03-22T09:07:39.123Z,9.30
2019-03-22T09:08:39.066Z,10.90
2019-03-22T09:09:41.725Z,9.20
2019-03-22T09:10:39.045Z,11.20
2019-03-22T09:11:38.956Z,9.30
2019-03-22T09:12:38.919Z,11.70
2019-03-22T09:13:38.886Z,11.50
2019-03-22T09:14:38.852Z,10.70
2019-03-22T09:15:42.102Z,10.90
2019-03-22T09:16:38.769Z,9.80
2019-03-22T09:17:38.763Z,9.40
2019-03-22T09:18:38.742Z,10.60
2019-03-22T09:19:38.659Z,10.10
2019-03-22T09:20:38.620Z,11.80
2019-03-22T09:21:38.581Z,10.70
2019-03-22T09:22:38.572Z,9.40
2019-03-22T09:23:38.523Z,10.90
2019-03-22T09:24:39.444Z,9.30
2019-03-22T09:25:38.450Z,9.80
2019-03-22T09:26:47.435Z,7.50
2019-03-22T09:27:38.377Z,9.30
2019-03-22T09:28:38.321Z,9.30
2019-03-22T09:29:38.287Z,10.00
2019-03-22T09:30:38.258Z,8.00
2019-03-22T09:31:38.215Z,8.60
2019-03-22T09:32:38.219Z,8.60
2019-03-22T09:33:38.137Z,10.20
2019-03-22T09:34:38.126Z,11.20
2019-03-22T09:35:38.065Z,11.00
2019-03-22T09:36:38.026Z,11.00
2019-03-22T09:37:37.992Z,11.90
2019-03-22T09:38:37.990Z,8.50
2019-03-22T09:39:37.920Z,11.00
2019-03-22T09:40:37.889Z,7.70
2019-03-22T09:41:37.845Z,11.10
2019-03-22T09:42:37.823Z,12.20
2019-03-22T09:43:37.775Z,9.80
2019-03-22T09:57:49.527Z,10.30
2019-03-22T09:58:48.505Z,11.80
2019-03-22T09:59:48.442Z,12.40
2019-03-22T10:00:48.908Z,9.90
2019-03-22T10:01:48.355Z,12.10
2019-03-22T10:02:48.349Z,10.00
2019-03-22T10:03:48.279Z,9.60
2019-03-22T10:04:48.283Z,11.80
2019-03-22T10:05:48.213Z,12.50
2019-03-22T10:06:48.167Z,12.40
2019-03-22T10:07:50.026Z,11.90
2019-03-22T10:08:48.100Z,12.70
2019-03-22T10:09:48.103Z,12.70
2019-03-22T10:10:48.011Z,15.00
2019-03-22T10:11:47.969Z,9.90
2019-03-22T10:12:47.981Z,10.20
2019-03-22T10:13:48.477Z,9.60
2019-03-22T10:14:47.861Z,12.40
2019-03-22T10:15:47.877Z,14.90
2019-03-22T10:16:47.949Z,11.70
2019-03-22T10:17:47.751Z,13.50
2019-03-22T10:18:47.726Z,15.80
2019-03-22T10:19:47.677Z,12.70
2019-03-22T10:20:47.646Z,13.80
2019-03-22T10:21:47.600Z,14.20
2019-03-22T10:22:47.566Z,14.30
2019-03-22T10:23:47.569Z,11.00
2019-03-22T10:24:47.527Z,15.70
2019-03-22T10:25:47.484Z,12.80
2019-03-22T10:26:47.457Z,12.00
2019-03-22T10:27:47.386Z,17.40
2019-03-22T10:28:47.348Z,20.00
2019-03-22T10:29:47.318Z,12.70
2019-03-22T10:30:47.271Z,12.70
2019-03-22T10:31:47.243Z,12.70
2019-03-22T10:32:47.213Z,13.90
2019-03-22T10:33:47.163Z,14.90
2019-03-22T10:34:47.127Z,13.70
2019-03-22T10:35:47.110Z,12.70
2019-03-22T10:36:47.057Z,13.30
2019-03-22T10:37:47.052Z,12.30
2019-03-22T10:38:47.021Z,14.90
2019-03-22T10:39:46.953Z,11.50
2019-03-22T10:40:46.915Z,16.10
2019-03-22T10:41:46.916Z,16.80
2019-03-22T10:42:46.846Z,10.70
2019-03-22T10:43:46.803Z,14.90
2019-03-22T10:44:46.764Z,15.20
2019-03-22T10:45:46.728Z,16.10
2019-03-22T10:46:46.766Z,14.60
2019-03-22T10:47:46.685Z,13.70
2019-03-22T10:48:46.636Z,13.30
2019-03-22T10:49:46.671Z,12.10
2019-03-22T10:50:46.603Z,12.20
2019-03-22T10:51:56.014Z,14.60
2019-03-22T10:52:48.191Z,13.00
2019-03-22T10:53:46.442Z,15.30
2019-03-22T10:54:46.480Z,12.60
2019-03-22T10:55:46.373Z,13.80
2019-03-22T10:56:46.331Z,13.50
2019-03-22T10:57:46.297Z,12.90
2019-03-22T10:58:46.280Z,11.80
2019-03-22T10:59:46.230Z,13.10
2019-03-22T11:00:46.195Z,14.40
2019-03-22T11:01:52.419Z,12.50
2019-03-22T11:02:46.120Z,11.80
2019-03-22T11:03:46.180Z,12.90
2019-03-22T11:04:46.045Z,12.30
2019-03-22T11:05:46.012Z,11.10
2019-03-22T11:06:45.978Z,9.80
2019-03-22T11:07:45.945Z,13.40
2019-03-22T11:08:45.908Z,10.80
2019-03-22T11:09:45.870Z,10.50
2019-03-22T11:10:45.835Z,9.90
2019-03-22T11:11:45.798Z,10.80
2019-03-22T11:12:45.765Z,11.10
2019-03-22T11:13:45.730Z,11.50
2019-03-22T11:14:45.830Z,11.50
2019-03-22T11:15:48.677Z,10.50
2019-03-22T11:16:45.618Z,7.70
2019-03-22T11:17:45.585Z,6.40
2019-03-22T11:18:45.557Z,3.90
2019-03-22T11:19:45.518Z,5.20
2019-03-22T11:20:45.810Z,4.00
2019-03-22T11:21:45.449Z,4.10
2019-03-22T11:22:45.410Z,4.20
2019-03-22T11:23:45.371Z,4.60
2019-03-22T11:24:45.334Z,4.00
2019-03-22T11:25:45.324Z,4.10
2019-03-22T11:26:45.268Z,4.30
2019-03-22T11:27:45.235Z,5.30
2019-03-22T11:28:45.196Z,5.60
2019-03-22T11:29:45.164Z,5.80
2019-03-22T11:30:45.127Z,7.30
2019-03-22T11:31:45.100Z,5.00
2019-03-22T11:32:45.058Z,4.50
2019-03-22T11:33:45.025Z,3.80
2019-03-22T11:34:45.007Z,5.00
2019-03-22T11:35:44.950Z,4.30
2019-03-22T11:36:44.914Z,5.90
2019-03-22T11:37:44.881Z,3.60
2019-03-22T11:38:44.849Z,4.50
2019-03-22T11:39:44.815Z,5.50
2019-03-22T11:40:46.794Z,4.60
2019-03-22T11:41:44.744Z,4.30
2019-03-22T11:42:44.706Z,3.50
2019-03-22T11:43:44.672Z,5.50
2019-03-22T11:44:44.643Z,4.40
2019-03-22T11:45:44.610Z,5.50
2019-03-22T11:46:44.567Z,4.80
2019-03-22T11:47:44.536Z,4.50
2019-03-22T11:48:44.496Z,5.40
2019-03-22T11:49:44.471Z,5.00
2019-03-22T11:50:44.431Z,5.60
2019-03-22T11:51:44.401Z,5.00
2019-03-22T11:52:44.363Z,4.40
2019-03-22T11:53:44.329Z,6.20
2019-03-22T11:54:44.290Z,5.30
2019-03-22T11:55:44.256Z,5.30
2019-03-22T11:56:44.223Z,6.50
2019-03-22T11:57:44.189Z,7.80
2019-03-22T11:58:44.154Z,7.60
2019-03-22T11:59:44.123Z,4.70
2019-03-22T12:00:44.082Z,4.70
2019-03-22T12:01:44.053Z,4.50
2019-03-22T12:02:44.018Z,6.10
2019-03-22T12:03:43.986Z,4.90
2019-03-22T12:04:43.951Z,5.80
2019-03-22T12:05:43.916Z,5.30
2019-03-22T12:06:43.880Z,6.00
2019-03-22T12:07:43.843Z,4.70
2019-03-22T12:08:43.809Z,5.50
2019-03-22T12:09:43.778Z,5.60
2019-03-22T12:10:43.744Z,4.70
2019-03-22T12:11:43.712Z,5.70
2019-03-22T12:12:43.678Z,6.30
2019-03-22T12:13:43.642Z,5.00
2019-03-22T12:14:43.606Z,6.20
2019-03-22T12:15:43.572Z,4.80
2019-03-22T12:16:43.541Z,5.70
2019-03-22T12:17:43.505Z,6.90
2019-03-22T12:18:43.470Z,5.60
2019-03-22T12:19:43.434Z,4.50
2019-03-22T12:20:43.400Z,5.30
2019-03-22T12:21:43.367Z,6.90
2019-03-22T12:22:43.336Z,5.70
2019-03-22T12:23:43.311Z,5.60
2019-03-22T12:24:43.268Z,4.70
2019-03-22T12:25:43.234Z,7.20
2019-03-22T12:26:43.198Z,4.90
2019-03-22T12:27:43.163Z,7.20
2019-03-22T12:28:43.129Z,7.00
2019-03-22T12:29:43.095Z,5.70
2019-03-22T12:30:43.064Z,4.50
2019-03-22T12:31:51.697Z,5.70
2019-03-22T12:33:47.449Z,5.40
2019-03-22T12:34:47.391Z,6.30
2019-03-22T12:35:47.354Z,5.90
2019-03-22T12:36:47.325Z,5.80
2019-03-22T12:37:47.291Z,5.10
2019-03-22T12:38:47.256Z,5.00
2019-03-22T12:39:47.229Z,5.00
2019-03-22T12:40:47.186Z,4.90
2019-03-22T12:41:47.156Z,5.80
2019-03-22T12:42:47.124Z,4.70
2019-03-22T12:43:47.096Z,5.30
2019-03-22T12:44:47.059Z,4.90
2019-03-22T12:45:47.021Z,5.50
2019-03-22T12:46:49.105Z,6.40
2019-03-22T12:47:46.949Z,5.10
2019-03-22T12:48:46.916Z,6.50
2019-03-22T12:49:46.884Z,4.90
2019-03-22T12:50:46.852Z,6.30
2019-03-22T12:51:46.830Z,6.20
2019-03-22T12:52:46.787Z,6.60
2019-03-22T12:53:46.752Z,5.50
2019-03-22T12:54:46.721Z,4.80
2019-03-22T12:55:48.626Z,5.30
2019-03-22T12:56:46.669Z,6.20
2019-03-22T12:57:46.627Z,5.70
2019-03-22T12:58:46.582Z,4.90
2019-03-22T12:59:46.548Z,7.30
2019-03-22T13:00:46.516Z,5.80
2019-03-22T13:01:46.485Z,4.50
2019-03-22T13:02:46.449Z,4.90
2019-03-22T13:03:46.419Z,4.20
2019-03-22T13:04:46.385Z,4.70
2019-03-22T13:05:46.350Z,4.90
2019-03-22T13:06:46.318Z,4.90
2019-03-22T13:07:46.282Z,5.40
2019-03-22T13:08:46.247Z,4.30
2019-03-22T13:09:46.214Z,5.80
2019-03-22T13:10:46.182Z,4.60
2019-03-22T13:11:46.152Z,6.80
2019-03-22T13:12:46.112Z,6.70
2019-03-22T13:13:46.082Z,7.10
2019-03-22T13:14:46.049Z,5.50
2019-03-22T13:15:46.018Z,5.00
2019-03-22T13:16:45.984Z,7.20
2019-03-22T13:17:45.952Z,6.70
2019-03-22T13:18:50.088Z,4.80
2019-03-22T13:19:45.879Z,5.30
2019-03-22T13:20:45.847Z,5.90
2019-03-22T13:21:45.814Z,4.30
2019-03-22T13:22:45.782Z,5.10
2019-03-22T13:23:45.751Z,7.00
2019-03-22T13:24:45.719Z,5.50
2019-03-22T13:25:45.683Z,6.00
2019-03-22T13:26:45.646Z,5.10
2019-03-22T13:27:45.612Z,6.70